createdAt,value
2022-10-23T00:01:15.855Z,85.90
2022-10-23T00:11:21.768Z,85.68
2022-10-23T00:21:25.094Z,85.85
2022-10-23T00:31:27.270Z,84.68
2022-10-23T00:41:30.233Z,84.18
2022-10-23T00:51:38.610Z,85.28
2022-10-23T01:01:41.472Z,86.67
2022-10-23T01:12:05.063Z,87.64
2022-10-23T01:22:22.345Z,86.57
2022-10-23T01:32:31.223Z,85.30
2022-10-23T01:42:39.985Z,85.98
2022-10-23T01:52:42.354Z,86.24
2022-10-23T02:02:46.260Z,86.07
2022-10-23T02:12:59.279Z,85.73
2022-10-23T02:23:11.411Z,86.32
2022-10-23T02:33:14.644Z,85.84
2022-10-23T02:43:27.684Z,88.24
2022-10-23T02:53:53.776Z,88.46
2022-10-23T03:03:59.305Z,88.02
2022-10-23T03:14:01.554Z,86.70
2022-10-23T03:24:03.982Z,86.64
2022-10-23T03:34:11.159Z,86.26
2022-10-23T03:44:13.300Z,86.66
2022-10-23T03:54:15.390Z,86.33
2022-10-23T04:04:17.592Z,86.31
2022-10-23T04:14:20.099Z,85.78
2022-10-23T04:24:23.522Z,85.56
2022-10-23T04:34:25.597Z,87.13
2022-10-23T04:44:27.680Z,86.18
2022-10-23T04:54:29.747Z,85.27
2022-10-23T05:04:31.878Z,85.56
2022-10-23T05:14:34.036Z,85.64
2022-10-23T05:24:36.211Z,86.05
2022-10-23T05:34:39.231Z,86.39
2022-10-23T05:44:41.527Z,85.83
2022-10-23T05:54:43.595Z,86.17
2022-10-23T06:04:45.684Z,86.56
2022-10-23T06:14:48.468Z,86.83
2022-10-23T06:24:50.715Z,87.32
2022-10-23T06:34:52.902Z,87.33
2022-10-23T06:44:55.479Z,88.23
2022-10-23T06:54:57.619Z,88.08
2022-10-23T07:04:59.712Z,88.16
2022-10-23T07:15:01.929Z,88.16
2022-10-23T07:25:04.337Z,87.68
2022-10-23T07:35:07.737Z,87.02
2022-10-23T07:45:10.416Z,87.70
2022-10-23T07:55:12.902Z,87.07
2022-10-23T08:05:15.052Z,86.09
2022-10-23T08:15:17.199Z,85.40
2022-10-23T08:25:24.710Z,84.67
2022-10-23T08:35:27.969Z,83.37
2022-10-23T08:46:00.112Z,82.97
2022-10-23T08:56:07.016Z,81.35
2022-10-23T09:06:39.444Z,81.20
2022-10-23T09:17:05.850Z,80.95
2022-10-23T09:27:15.147Z,75.41
2022-10-23T09:37:37.591Z,74.45
2022-10-23T09:47:39.834Z,70.94
2022-10-23T09:57:44.289Z,66.13
2022-10-23T10:07:56.303Z,58.94
2022-10-23T10:18:09.859Z,57.57
2022-10-23T10:28:36.758Z,54.67
2022-10-23T10:38:59.806Z,51.63
2022-10-23T10:49:15.489Z,53.60
2022-10-23T10:59:41.874Z,51.37
2022-10-23T11:09:44.125Z,50.99
2022-10-23T11:20:03.445Z,49.90
2022-10-23T11:30:36.202Z,49.24
2022-10-23T11:40:45.469Z,49.80
2022-10-23T11:50:47.572Z,47.76
2022-10-23T12:00:55.615Z,49.70
2022-10-23T12:10:57.974Z,49.45
2022-10-23T12:21:03.396Z,48.79
2022-10-23T12:31:38.926Z,48.29
2022-10-23T12:41:42.757Z,49.36
2022-10-23T12:51:45.461Z,48.52
2022-10-23T13:01:52.433Z,49.92
2022-10-23T13:11:56.288Z,48.82
2022-10-23T13:21:59.087Z,49.79
2022-10-23T13:32:11.986Z,50.18
2022-10-23T13:42:15.169Z,51.35
2022-10-23T13:52:20.907Z,54.63
2022-10-23T14:02:24.520Z,58.76
2022-10-23T14:12:26.705Z,60.66
2022-10-23T14:22:28.902Z,62.49
2022-10-23T14:32:31.434Z,63.80
2022-10-23T14:42:34.537Z,64.47
2022-10-23T14:52:36.614Z,67.79
2022-10-23T15:02:38.721Z,66.75
2022-10-23T15:12:41.250Z,68.32
2022-10-23T15:22:43.938Z,68.33
2022-10-23T15:32:46.356Z,69.03
2022-10-23T15:42:49.881Z,69.19
2022-10-23T15:52:53.468Z,70.31
2022-10-23T16:02:55.708Z,70.43
2022-10-23T16:12:57.809Z,72.31
2022-10-23T16:22:59.981Z,73.84
2022-10-23T16:33:02.102Z,73.66
2022-10-23T16:43:04.526Z,74.78
2022-10-23T16:53:07.410Z,75.74
2022-10-23T17:03:10.935Z,76.24
2022-10-23T17:13:13.176Z,76.63
2022-10-23T17:23:15.297Z,78.17
2022-10-23T17:33:18.058Z,78.36
2022-10-23T17:43:20.186Z,76.87
2022-10-23T17:53:22.260Z,78.95
2022-10-23T18:03:24.341Z,77.88
2022-10-23T18:13:26.413Z,77.25
2022-10-23T18:23:29.293Z,76.78
2022-10-23T18:33:31.464Z,77.15
2022-10-23T18:43:44.072Z,78.13
2022-10-23T18:53:46.949Z,79.31
2022-10-23T19:03:49.246Z,78.79
2022-10-23T19:13:51.748Z,79.12
2022-10-23T19:23:53.836Z,78.82
2022-10-23T19:33:56.123Z,78.90
2022-10-23T19:43:58.479Z,78.91
2022-10-23T19:54:00.959Z,79.41
2022-10-23T20:04:03.144Z,79.99
2022-10-23T20:14:06.422Z,82.80
2022-10-23T20:24:08.849Z,83.00
2022-10-23T20:40:12.537Z,82.84
2022-10-23T20:50:14.721Z,81.89
2022-10-23T21:00:17.208Z,81.58
2022-10-23T21:10:19.378Z,81.82
2022-10-23T21:20:21.450Z,81.88
2022-10-23T21:30:23.623Z,81.76
2022-10-23T21:40:26.430Z,82.25
2022-10-23T21:50:28.505Z,81.63
2022-10-23T22:00:30.684Z,81.31
2022-10-23T22:10:35.253Z,80.24
2022-10-23T22:20:37.392Z,80.25
2022-10-23T22:30:39.455Z,79.84
2022-10-23T22:40:46.376Z,79.71
2022-10-23T22:50:48.813Z,78.95
2022-10-23T23:00:52.298Z,80.92
2022-10-23T23:10:56.416Z,80.36
2022-10-23T23:21:05.420Z,70.58
2022-10-23T23:31:13.878Z,63.63
2022-10-23T23:41:18.816Z,61.52
2022-10-23T23:51:23.201Z,60.78
